Main page
METAR-TAF:

METAR-TAF

Airports :

Iași International Airport

Iasi, Romania

latitude: 47-10N, longitude: 027-38E, elevation: 102 m

Current weather observation

The report was made 25 minutes ago, at 20:00 UTC
Calm wind
Temperature 9°C
Humidity 66%
Pressure 1027 hPa
Visibility 10 km or more
no clouds below 1500 m and no cumulonimbus

METAR: LRIA 282000Z 00000KT CAVOK 09/03 Q1027

Time: 23:25 (20:25 UTC)

Forecast

The report was made 3 hours and 25 minutes ago, at 17:00 UTC
Forecast valid from 28 at 18 UTC to 29 at 03 UTC
Wind 4 kt from variable directions
Visibility 10 km or more
no clouds below 1500 m and no cumulonimbus
Probability 30% :
Temporary
from 29 at 00 UTC to 29 at 03 UTC
Visibility: 5000 m
mist

TAF: LRIA 281700Z 2818/2903 VRB04KT CAVOK PROB30 TEMPO 2900/2903 5000 BR

Weather observations and forecasts of more than 4000 airports (METAR and TAF reports).

The available stations are represented by yellow and red dots on the map.

Hover mouse over dot to see the name of the station.

Then click to see weather observations and forecasts.

To change the map : click on the green buttons with a black cross to zoom in, on the green button with a dash to zoom out, or on the green arrows for adjacent maps.


METAR-TAF: